Hovedside
METAR-TAF:

METAR-TAF

Lufthavner :

Aarhus lufthavn

Aarhus, Danmark

breddegrad: 56-18N, lengdegrad: 010-37E, høyde over havet: 23 m

Gjeldene værobservasjon

Denne rapporten ble laget for 35 minutter siden, klokken 04:20 UTC
Vind 2 kt fra Nordvest
Temperatur 8°C
Luftfuktighet 100%
Trykk 1016 hPa
Sikt: 0400 m
tåke

METAR: EKAH 160420Z AUTO 31002KT 0400NDV R10R/1300D R28L/1000D FG FEW004/// 08/08 Q1016

Tid: 06:55 (04:55 UTC)

Varsel

Denne rapporten ble laget for 2 timer og 2 minutter siden, klokken 02:53 UTC
Varsel gyldig fra 16. klokken 02 UTC til 16. klokken 24 UTC
Vind 2 kt fra skiftende retning
Sikt 10 km eller mer
Få skyer i en høyde av 800 ft
Midlertidig
fra 16. klokken 02 UTC til 16. klokken 06 UTC
Sikt: 0200 m
Brutte skyer i en høyde av 100 ft
tåke
Midlertidig
fra 16. klokken 06 UTC til 16. klokken 08 UTC
Sikt: 1200 m
Brutte skyer i en høyde av 300 ft
dis

TAF: EKAH 160253Z 1602/1624 VRB02KT 9999 FEW008 TEMPO 1602/1606 0200 FG BKN001 TEMPO 1606/1608 1200 BR BKN003

Værobservasjoner og værvarsel for over 4000 flyplasser (METAR- og TAF-rapporter).

Tilgjengelige stasjoner er representert av de røde og gule prikkene på kartet.

Hold musepekeren over prikken for å se navnet på stasjonen.

Klikk så for å se værobservasjoner og -varsler.

For å forandre kartet kan du klikke på den grønne knappen med svart kryss for å zoome inn, på den grønne knappen med strek for å zoome ut, eller på de grønne pilene for å se tilstøtende kart.


METAR-TAF: